createdAt,value
2018-01-23T00:01:55.641Z,6.53
2018-01-23T00:04:24.129Z,6.03
2018-01-23T00:06:52.694Z,4.50
2018-01-23T00:09:21.173Z,4.17
2018-01-23T00:11:55.388Z,10.03
2018-01-23T00:14:24.179Z,6.07
2018-01-23T00:16:52.497Z,7.27
2018-01-23T00:19:20.967Z,4.90
2018-01-23T00:21:49.568Z,5.60
2018-01-23T00:24:19.435Z,5.17
2018-01-23T00:26:47.909Z,4.43
2018-01-23T00:29:16.595Z,3.13
2018-01-23T00:31:45.012Z,2.40
2018-01-23T00:34:14.096Z,2.00
2018-01-23T00:36:42.371Z,1.93
2018-01-23T00:39:10.903Z,5.63
2018-01-23T00:41:40.190Z,2.33
2018-01-23T00:44:08.812Z,3.60
2018-01-23T00:46:44.770Z,2.80
2018-01-23T00:49:15.219Z,3.03
2018-01-23T00:51:43.679Z,19.83
2018-01-23T00:54:11.992Z,23.83
2018-01-23T00:56:40.436Z,23.10
2018-01-23T00:59:09.016Z,30.97
2018-01-23T01:01:38.313Z,25.13
2018-01-23T01:04:06.695Z,21.57
2018-01-23T01:06:34.986Z,9.80
2018-01-23T01:09:04.476Z,7.33
2018-01-23T01:11:32.955Z,9.80
2018-01-23T01:14:01.436Z,12.33
2018-01-23T01:16:30.120Z,16.30
2018-01-23T01:18:58.518Z,22.60
2018-01-23T01:21:26.983Z,12.13
2018-01-23T01:23:56.199Z,24.03
2018-01-23T01:26:24.663Z,12.03
2018-01-23T01:28:53.653Z,12.77
2018-01-23T01:31:22.331Z,10.03
2018-01-23T01:34:00.293Z,9.17
2018-01-23T01:36:29.681Z,6.60
2018-01-23T01:39:02.013Z,3.90
2018-01-23T01:41:30.598Z,4.13
2018-01-23T01:43:59.077Z,3.17
2018-01-23T01:46:27.564Z,4.80
2018-01-23T01:48:56.038Z,2.30
2018-01-23T01:51:31.585Z,2.10
2018-01-23T01:54:00.008Z,2.57
2018-01-23T01:56:31.420Z,2.57
2018-01-23T01:58:59.896Z,2.03
2018-01-23T02:01:34.182Z,1.80
2018-01-23T02:04:03.715Z,1.93
2018-01-23T02:06:32.197Z,1.63
2018-01-23T02:09:00.637Z,4.87
2018-01-23T02:11:29.273Z,12.37
2018-01-23T02:13:57.591Z,24.50
2018-01-23T02:16:30.707Z,13.47
2018-01-23T02:18:59.926Z,17.17
2018-01-23T02:21:28.689Z,16.13
2018-01-23T02:23:57.917Z,10.50
2018-01-23T02:26:26.704Z,5.60
2018-01-23T02:28:55.089Z,11.60
2018-01-23T02:31:36.668Z,17.87
2018-01-23T02:34:05.284Z,12.17
2018-01-23T02:36:38.612Z,13.60
2018-01-23T02:39:13.295Z,12.33
2018-01-23T02:41:41.588Z,9.03
2018-01-23T02:44:10.027Z,6.77
2018-01-23T02:46:38.509Z,10.97
2018-01-23T02:49:06.999Z,7.70
2018-01-23T02:51:42.128Z,5.57
2018-01-23T02:54:10.609Z,4.30
2018-01-23T02:56:38.889Z,8.17
2018-01-23T02:59:08.504Z,4.67
2018-01-23T03:01:36.972Z,5.93
2018-01-23T03:04:05.453Z,4.03
2018-01-23T03:06:33.941Z,3.97
2018-01-23T03:09:02.617Z,2.87
2018-01-23T03:11:30.999Z,1.90
2018-01-23T03:14:04.500Z,2.07
2018-01-23T03:16:35.575Z,1.80
2018-01-23T03:19:04.544Z,2.10
2018-01-23T03:21:33.050Z,1.87
